Time;durP1;ratioP1;P1;durP2;ratioP2;P2;SDS_P1;SDS_P2;PMS_P1;PMS_P2;Temp;Humidity;BMP_temperature;BMP_pressure;BME280_temperature;BME280_humidity;BME280_pressure;Samples;Min_cycle;Max_cycle;Signal;HPM_P1;HPM_P2
2023/01/02 00:02:12;;;;;;;12.87;11.90;;;;;;;3.98;100.00;94123.53;5090913;28;20197;-78
2023/01/02 00:04:37;;;;;;;12.43;11.33;;;;;;;4.09;100.00;94128.09;5090567;28;20235;-77
2023/01/02 00:07:03;;;;;;;13.07;12.07;;;;;;;4.10;100.00;94130.47;5091373;28;20184;-77
2023/01/02 00:09:28;;;;;;;11.67;10.87;;;;;;;4.07;100.00;94130.88;5089930;28;20213;-77
2023/01/02 00:11:53;;;;;;;11.73;10.90;;;;;;;4.04;100.00;94120.94;5091238;28;20212;-77
2023/01/02 00:14:19;;;;;;;12.70;11.80;;;;;;;4.22;100.00;94126.25;5090639;28;20233;-77
2023/01/02 00:16:44;;;;;;;15.17;13.70;;;;;;;4.26;100.00;94124.88;5090882;28;20185;-77
2023/01/02 00:19:09;;;;;;;14.50;13.20;;;;;;;4.10;100.00;94109.00;5090516;28;20225;-77
2023/01/02 00:21:35;;;;;;;17.17;15.43;;;;;;;4.03;100.00;94098.66;5089603;28;20177;-78
2023/01/02 00:24:00;;;;;;;16.77;15.27;;;;;;;4.18;100.00;94114.75;5090083;28;20203;-77
2023/01/02 00:26:25;;;;;;;20.00;16.90;;;;;;;4.19;100.00;94123.28;5089986;28;20216;-77
2023/01/02 00:28:51;;;;;;;19.20;15.90;;;;;;;4.20;100.00;94120.50;5089029;28;20184;-77
2023/01/02 00:31:16;;;;;;;17.33;15.67;;;;;;;4.16;100.00;94115.94;5090613;28;20212;-77
2023/01/02 00:33:42;;;;;;;16.30;14.63;;;;;;;3.97;100.00;94078.03;5089352;28;20180;-77
2023/01/02 00:36:10;;;;;;;12.17;11.37;;;;;;;4.22;100.00;94123.69;5070093;28;20205;-78
2023/01/02 00:38:36;;;;;;;13.43;12.53;;;;;;;4.09;100.00;94112.59;5068844;28;20192;-77
2023/01/02 00:41:03;;;;;;;13.73;12.43;;;;;;;4.03;100.00;94103.84;5089456;28;20225;-78
2023/01/02 00:43:28;;;;;;;15.83;14.07;;;;;;;3.99;100.00;94089.75;5088159;28;20202;-76
2023/01/02 00:45:54;;;;;;;14.03;12.73;;;;;;;4.22;100.00;94108.16;5089224;28;20220;-77
2023/01/02 00:48:21;;;;;;;12.30;11.07;;;;;;;4.23;100.00;94120.13;5089774;28;20191;-77
2023/01/02 00:50:46;;;;;;;13.23;12.33;;;;;;;4.29;100.00;94124.47;5088803;28;20225;-78
2023/01/02 00:53:12;;;;;;;13.63;12.53;;;;;;;4.30;100.00;94130.41;5088887;28;20279;-77
2023/01/02 00:55:37;;;;;;;12.83;11.93;;;;;;;4.19;100.00;94118.13;5089659;28;20222;-78
2023/01/02 00:58:02;;;;;;;12.63;11.73;;;;;;;4.20;100.00;94114.56;5089756;28;20189;-77
2023/01/02 01:00:28;;;;;;;13.57;12.37;;;;;;;4.14;100.00;94129.06;5088107;28;20240;-77
2023/01/02 01:02:55;;;;;;;13.33;12.33;;;;;;;4.08;100.00;94106.63;5089719;28;20188;-77
2023/01/02 01:05:21;;;;;;;12.93;11.93;;;;;;;4.09;100.00;94117.75;5088953;28;20229;-77
2023/01/02 01:07:46;;;;;;;12.83;11.77;;;;;;;3.96;100.00;94108.25;5089505;28;20219;-77
2023/01/02 01:10:12;;;;;;;13.50;12.40;;;;;;;3.95;100.00;94098.91;5087915;28;20235;-77
2023/01/02 01:12:37;;;;;;;13.83;12.73;;;;;;;3.85;100.00;94097.72;5088612;28;20207;-77
2023/01/02 01:15:04;;;;;;;13.57;12.27;;;;;;;3.84;100.00;94101.28;5087665;28;20228;-77
2023/01/02 01:17:30;;;;;;;14.40;13.20;;;;;;;3.83;100.00;94112.63;5089301;28;20180;-77
2023/01/02 01:19:56;;;;;;;14.00;12.90;;;;;;;3.62;100.00;94090.41;5089221;28;20217;-77
2023/01/02 01:22:21;;;;;;;15.53;13.93;;;;;;;3.73;100.00;94107.88;5088215;28;20200;-78
2023/01/02 01:24:47;;;;;;;17.77;15.07;;;;;;;3.84;100.00;94109.84;5087647;28;20243;-77
2023/01/02 01:27:12;;;;;;;28.63;16.63;;;;;;;3.73;100.00;94104.50;5089826;28;20197;-77
2023/01/02 01:29:37;;;;;;;26.17;16.33;;;;;;;3.85;100.00;94110.63;5087728;28;20228;-77
2023/01/02 01:32:03;;;;;;;20.83;14.40;;;;;;;3.78;100.00;94097.75;5089585;28;20184;-77
2023/01/02 01:34:28;;;;;;;20.13;14.57;;;;;;;3.82;100.00;94111.84;5087707;28;20228;-77
2023/01/02 01:36:54;;;;;;;21.00;15.77;;;;;;;3.76;100.00;94096.34;5071636;28;20176;-77
2023/01/02 01:39:19;;;;;;;17.67;14.60;;;;;;;3.80;100.00;94111.22;5088725;28;20921;-78
2023/01/02 01:41:44;;;;;;;26.03;17.30;;;;;;;3.72;100.00;94095.94;5088240;28;20181;-77
2023/01/02 01:44:47;;;;;;;22.07;16.03;;;;;;;3.81;100.00;94105.09;5088952;28;20232;-77
2023/01/02 01:47:39;;;;;;;22.50;17.50;;;;;;;3.73;100.00;94102.72;5087249;28;20211;-77
2023/01/02 01:50:04;;;;;;;22.00;17.53;;;;;;;3.61;100.00;94103.50;5104246;28;20232;-77
2023/01/02 01:52:32;;;;;;;24.60;18.63;;;;;;;3.35;100.00;94057.84;5089381;28;20191;-77
2023/01/02 01:55:15;;;;;;;24.50;18.83;;;;;;;3.51;100.00;94098.75;5089172;28;20235;-78
2023/01/02 01:57:50;;;;;;;23.50;17.40;;;;;;;3.53;100.00;94103.72;5089737;28;20177;-77
2023/01/02 02:00:16;;;;;;;28.43;19.57;;;;;;;3.41;100.00;94077.69;5088703;28;20224;-77
2023/01/02 02:02:45;;;;;;;23.77;18.00;;;;;;;3.52;100.00;94095.16;5089579;28;20193;-77
2023/01/02 02:05:14;;;;;;;28.63;20.67;;;;;;;3.49;100.00;94099.94;5088774;28;20235;-79
2023/01/02 02:07:47;;;;;;;22.43;18.27;;;;;;;3.54;100.00;94098.34;5089203;28;20185;-77
2023/01/02 02:10:12;;;;;;;22.17;17.07;;;;;;;2.97;100.00;94023.31;5088113;28;20220;-77
2023/01/02 02:12:38;;;;;;;19.13;16.93;;;;;;;3.25;100.00;94062.63;5089228;28;20303;-77
2023/01/02 02:15:07;;;;;;;20.23;16.23;;;;;;;3.35;100.00;94093.97;5088778;28;20231;-77
2023/01/02 02:17:47;;;;;;;20.40;16.33;;;;;;;3.54;100.00;94088.03;5089175;28;20257;-78
2023/01/02 02:20:25;;;;;;;17.57;15.53;;;;;;;3.55;100.00;94089.59;5088580;28;20224;-77
2023/01/02 02:23:09;;;;;;;18.10;16.33;;;;;;;3.63;100.00;94089.41;5088761;28;20207;-78
2023/01/02 02:25:53;;;;;;;15.43;14.10;;;;;;;3.51;100.00;94097.94;5089075;28;20228;-78
2023/01/02 02:28:36;;;;;;;15.93;14.43;;;;;;;3.51;100.00;94096.16;5108930;28;20216;-78
2023/01/02 02:31:08;;;;;;;13.83;12.63;;;;;;;3.35;100.00;94104.28;5092066;28;20235;-78
2023/01/02 02:33:58;;;;;;;13.50;12.27;;;;;;;3.23;100.00;94101.53;5092908;28;20204;-78
2023/01/02 02:37:05;;;;;;;13.50;12.50;;;;;;;3.29;100.00;94098.16;5108331;28;20205;-78
2023/01/02 02:39:34;;;;;;;13.97;12.90;;;;;;;3.30;100.00;94093.75;5057556;28;20318;-77
2023/01/02 02:42:18;;;;;;;13.77;12.67;;;;;;;3.18;100.00;94092.75;5092623;28;20199;-78
2023/01/02 02:44:43;;;;;;;14.63;13.13;;;;;;;3.21;100.00;94094.94;5090752;28;20322;-77
2023/01/02 02:47:37;;;;;;;14.77;13.47;;;;;;;3.02;100.00;94062.19;5092874;28;20193;-78
2023/01/02 02:50:05;;;;;;;14.03;13.03;;;;;;;3.14;100.00;94084.63;5091921;28;20229;-78
2023/01/02 02:52:47;;;;;;;15.20;13.87;;;;;;;3.14;100.00;94076.09;5092193;28;20216;-78
2023/01/02 02:55:23;;;;;;;13.17;12.03;;;;;;;3.32;100.00;94089.19;5091884;28;20247;-77
2023/01/02 02:57:50;;;;;;;13.63;12.63;;;;;;;3.28;100.00;94067.38;5091732;28;20208;-78
2023/01/02 03:00:18;;;;;;;14.37;13.17;;;;;;;3.44;100.00;94082.44;5091330;28;20221;-78
2023/01/02 03:02:44;;;;;;;14.83;13.43;;;;;;;3.38;100.00;94062.59;5091874;28;20185;-77
2023/01/02 03:05:13;;;;;;;15.27;13.77;;;;;;;3.33;100.00;94070.16;5091756;28;20227;-78
2023/01/02 03:07:54;;;;;;;14.30;13.03;;;;;;;3.19;100.00;94058.25;5091031;28;20281;-78
2023/01/02 03:10:22;;;;;;;14.03;12.93;;;;;;;3.24;100.00;94066.16;5089672;28;20256;-78
2023/01/02 03:12:54;;;;;;;13.70;12.40;;;;;;;3.29;100.00;94066.38;5089856;28;20219;-78
2023/01/02 03:15:33;;;;;;;13.93;12.90;;;;;;;3.22;100.00;94055.28;5091018;28;20240;-78
2023/01/02 03:18:17;;;;;;;14.90;13.47;;;;;;;3.35;100.00;94051.91;5090699;28;20191;-78
2023/01/02 03:21:12;;;;;;;13.80;12.80;;;;;;;3.36;100.00;94043.97;5091203;28;20229;-78
2023/01/02 03:23:44;;;;;;;13.53;12.40;;;;;;;3.39;100.00;94047.91;5059260;28;20189;-78
2023/01/02 03:26:13;;;;;;;12.50;11.50;;;;;;;3.26;100.00;94053.88;5091077;28;20294;-78
2023/01/02 03:28:42;;;;;;;13.93;12.83;;;;;;;3.21;100.00;94057.06;5090648;28;20204;-78
2023/01/02 03:31:13;;;;;;;12.63;11.67;;;;;;;3.22;100.00;94068.19;5091100;28;20204;-78
2023/01/02 03:33:45;;;;;;;11.93;11.03;;;;;;;3.29;100.00;94071.53;5090627;28;20201;-77
2023/01/02 03:36:19;;;;;;;11.30;10.63;;;;;;;3.32;100.00;94065.97;5090944;28;20733;-78
2023/01/02 03:38:56;;;;;;;11.90;11.00;;;;;;;3.18;100.00;94056.66;5090739;28;20206;-77
2023/01/02 03:41:26;;;;;;;12.37;11.47;;;;;;;3.25;100.00;94081.44;5090927;28;20252;-78
2023/01/02 03:43:54;;;;;;;12.07;11.37;;;;;;;3.14;100.00;94066.56;5090368;28;20253;-77
2023/01/02 03:46:36;;;;;;;11.97;11.07;;;;;;;3.47;100.00;94079.47;5091126;28;20192;-78
2023/01/02 03:49:15;;;;;;;11.57;10.87;;;;;;;3.38;100.00;94075.50;5090281;28;20212;-78
2023/01/02 03:51:40;;;;;;;12.23;11.10;;;;;;;3.21;100.00;94080.28;5088833;28;20200;-78
2023/01/02 03:54:06;;;;;;;12.87;12.07;;;;;;;3.15;100.00;94078.50;5090951;28;20256;-78
2023/01/02 03:56:35;;;;;;;12.47;11.37;;;;;;;3.15;100.00;94086.22;5091532;28;20826;-78
2023/01/02 03:59:13;;;;;;;12.63;11.60;;;;;;;3.20;100.00;94083.84;5089769;28;20200;-78
2023/01/02 04:01:45;;;;;;;12.67;11.37;;;;;;;3.08;100.00;94071.75;5090984;28;20268;-78
2023/01/02 04:04:19;;;;;;;12.93;11.70;;;;;;;3.11;100.00;94091.97;5089798;28;20232;-78
2023/01/02 04:06:49;;;;;;;12.73;11.93;;;;;;;3.20;100.00;94095.94;5090583;28;20279;-78
2023/01/02 04:09:23;;;;;;;14.40;13.30;;;;;;;3.19;100.00;94095.16;5090131;28;20283;-78
2023/01/02 04:11:54;;;;;;;14.17;13.03;;;;;;;3.31;100.00;94093.56;5090417;28;20177;-78
2023/01/02 04:14:28;;;;;;;15.67;14.17;;;;;;;3.27;100.00;94104.47;5090435;28;20220;-77
2023/01/02 04:16:55;;;;;;;18.50;15.40;;;;;;;3.25;100.00;94104.69;5090107;28;20200;-78
2023/01/02 04:19:30;;;;;;;25.90;18.47;;;;;;;3.29;100.00;94108.47;5090196;28;20220;-77
2023/01/02 04:22:01;;;;;;;39.73;21.93;;;;;;;2.84;100.00;94055.03;5089412;28;20196;-77
2023/01/02 04:24:30;;;;;;;40.90;20.50;;;;;;;3.10;100.00;94100.69;5088543;28;20236;-78
2023/01/02 04:27:19;;;;;;;35.30;21.13;;;;;;;3.12;100.00;94106.47;5090815;28;20172;-77
2023/01/02 04:29:44;;;;;;;57.27;24.80;;;;;;;2.99;100.00;94099.50;5103043;28;20224;-78
2023/01/02 04:32:12;;;;;;;55.30;26.43;;;;;;;3.03;100.00;94110.22;5091151;28;20173;-78
2023/01/02 04:34:39;;;;;;;72.17;30.93;;;;;;;2.94;100.00;94101.09;5089543;28;20385;-78
2023/01/02 04:37:04;;;;;;;96.77;38.50;;;;;;;2.76;100.00;94086.16;5089137;28;20261;-77
2023/01/02 04:39:32;;;;;;;145.80;53.53;;;;;;;2.81;100.00;94101.84;5089315;28;20741;-77
2023/01/02 04:41:57;;;;;;;123.97;45.47;;;;;;;2.89;100.00;94116.34;5088494;28;20215;-78
2023/01/02 04:44:23;;;;;;;137.00;50.47;;;;;;;2.86;100.00;94106.41;5088731;28;20232;-78
2023/01/02 04:46:48;;;;;;;111.57;43.57;;;;;;;2.93;100.00;94118.34;5089465;28;20181;-78
2023/01/02 04:49:13;;;;;;;89.37;36.93;;;;;;;2.82;100.00;94115.50;5089277;28;20228;-78
2023/01/02 04:51:39;;;;;;;81.67;34.43;;;;;;;2.75;100.00;94112.13;5090141;28;20217;-78
2023/01/02 04:54:04;;;;;;;90.37;38.07;;;;;;;2.76;100.00;94124.03;5090048;28;20312;-77
2023/01/02 04:56:29;;;;;;;61.90;27.63;;;;;;;2.74;100.00;94097.66;5090641;28;20190;-78
2023/01/02 04:58:55;;;;;;;17.97;15.17;;;;;;;2.78;100.00;94096.28;5089682;28;20222;-78
2023/01/02 05:01:21;;;;;;;22.17;16.30;;;;;;;2.84;100.00;94124.66;5089905;28;20193;-78
2023/01/02 05:03:48;;;;;;;29.07;21.47;;;;;;;2.68;100.00;94111.31;5089740;28;20189;-78
2023/01/02 05:06:14;;;;;;;32.13;21.87;;;;;;;2.76;100.00;94119.69;5089985;28;20204;-77
2023/01/02 05:08:40;;;;;;;32.27;21.97;;;;;;;2.78;100.00;94114.31;5090105;28;20192;-78
2023/01/02 05:11:17;;;;;;;26.63;19.40;;;;;;;2.92;100.00;94118.53;5088751;28;20296;-78
2023/01/02 05:13:42;;;;;;;20.00;16.60;;;;;;;3.24;100.00;94120.34;5089301;28;20276;-75
2023/01/02 05:16:08;;;;;;;22.93;16.83;;;;;;;3.27;100.00;94114.81;5088950;28;20205;-77
2023/01/02 05:18:33;;;;;;;28.03;20.20;;;;;;;3.10;100.00;94111.00;5089436;28;20200;-78
2023/01/02 05:23:56;;;;;;;20.90;17.67;;;;;;;2.80;100.00;94096.88;5089299;28;20187;-78
2023/01/02 05:26:21;;;;;;;29.37;20.67;;;;;;;2.95;100.00;94118.13;5088815;28;20757;-79
2023/01/02 05:28:47;;;;;;;20.30;17.83;;;;;;;3.01;100.00;94113.00;5089362;28;20188;-78
2023/01/02 05:31:12;;;;;;;17.73;16.00;;;;;;;3.04;100.00;94106.63;5089446;28;20192;-78
2023/01/02 05:33:38;;;;;;;15.27;14.00;;;;;;;3.01;100.00;94101.88;5088610;28;20219;-78
2023/01/02 05:36:05;;;;;;;13.07;12.03;;;;;;;2.84;100.00;94085.19;5088747;28;20237;-78
2023/01/02 05:38:31;;;;;;;21.10;17.17;;;;;;;2.90;100.00;94086.97;5089350;28;20193;-80
2023/01/02 05:41:05;;;;;;;26.00;20.40;;;;;;;3.03;100.00;94102.47;5088655;28;20240;-77
2023/01/02 05:43:31;;;;;;;18.50;16.47;;;;;;;3.06;100.00;94113.22;5088406;28;20185;-78
2023/01/02 05:45:57;;;;;;;12.57;11.57;;;;;;;3.07;100.00;94111.41;5088632;28;20225;-77
2023/01/02 05:48:23;;;;;;;12.87;11.87;;;;;;;2.94;100.00;94101.09;5088705;28;20177;-77
2023/01/02 05:50:48;;;;;;;13.30;12.07;;;;;;;2.92;100.00;94080.66;5088478;28;20275;-78
2023/01/02 05:53:14;;;;;;;14.70;13.30;;;;;;;3.04;100.00;94097.13;5088930;28;20199;-78
2023/01/02 05:55:39;;;;;;;17.43;15.63;;;;;;;2.97;100.00;94098.88;5088531;28;20276;-78
2023/01/02 05:58:04;;;;;;;19.83;17.67;;;;;;;2.81;100.00;94078.63;5089389;28;20190;-77
2023/01/02 06:00:30;;;;;;;27.50;20.37;;;;;;;3.09;100.00;94109.44;5088269;28;20282;-78
2023/01/02 06:02:55;;;;;;;23.17;18.20;;;;;;;3.16;100.00;94097.31;5087989;28;20204;-77
2023/01/02 06:05:20;;;;;;;17.60;15.87;;;;;;;3.22;100.00;94114.63;5087799;28;20228;-77
2023/01/02 06:07:46;;;;;;;14.80;13.40;;;;;;;3.19;100.00;94109.84;5089038;28;20188;-77
2023/01/02 06:10:11;;;;;;;14.43;13.17;;;;;;;3.21;100.00;94108.66;5087701;28;20251;-78
2023/01/02 06:12:37;;;;;;;15.57;14.13;;;;;;;3.26;100.00;94116.59;5088952;28;20173;-78
2023/01/02 06:15:02;;;;;;;17.63;15.30;;;;;;;3.27;100.00;94125.13;5087597;28;20280;-78
2023/01/02 06:17:28;;;;;;;16.47;14.73;;;;;;;3.35;100.00;94108.69;5088843;28;20183;-78
2023/01/02 06:19:53;;;;;;;17.60;15.70;;;;;;;3.29;100.00;94116.22;5088279;28;20216;-78
2023/01/02 06:22:18;;;;;;;23.97;16.57;;;;;;;3.37;100.00;94125.53;5089069;28;20236;-77
2023/01/02 06:24:44;;;;;;;28.40;19.63;;;;;;;3.37;100.00;94122.97;5088638;28;20243;-77
2023/01/02 06:27:09;;;;;;;32.27;21.63;;;;;;;3.49;100.00;94138.66;5088266;28;20905;-78
2023/01/02 06:29:34;;;;;;;38.43;23.10;;;;;;;3.38;100.00;94114.22;5086581;28;20262;-78
2023/01/02 06:32:00;;;;;;;36.37;21.47;;;;;;;3.70;100.00;94143.63;5086373;28;20257;-77
2023/01/02 06:34:25;;;;;;;37.53;22.23;;;;;;;3.63;100.00;94138.47;5086116;28;20243;-77
2023/01/02 06:36:50;;;;;;;28.47;20.33;;;;;;;3.58;100.00;94125.34;5086422;28;20239;-77
2023/01/02 06:39:16;;;;;;;26.97;19.53;;;;;;;3.61;100.00;94144.81;5087543;28;20232;-77
2023/01/02 06:41:41;;;;;;;24.50;19.27;;;;;;;3.49;100.00;94142.03;5086937;28;20189;-76
2023/01/02 06:44:11;;;;;;;27.27;19.70;;;;;;;3.41;100.00;94141.44;5103299;28;20236;-77
2023/01/02 06:46:36;;;;;;;24.17;18.93;;;;;;;3.36;100.00;94138.66;5086816;28;20275;-76
2023/01/02 06:49:02;;;;;;;21.93;17.73;;;;;;;3.41;100.00;94129.31;5087445;28;20241;-76
2023/01/02 06:51:27;;;;;;;22.13;18.13;;;;;;;3.36;100.00;94123.97;5086798;28;20284;-77
2023/01/02 06:53:53;;;;;;;25.93;19.07;;;;;;;3.50;100.00;94135.88;5086911;28;20244;-77
2023/01/02 06:56:19;;;;;;;30.00;20.87;;;;;;;3.37;100.00;94120.38;5087188;28;20208;-77
2023/01/02 06:58:45;;;;;;;27.43;20.63;;;;;;;3.42;100.00;94135.28;5086826;28;20205;-77
2023/01/02 07:01:14;;;;;;;24.13;20.20;;;;;;;3.44;100.00;94136.66;5088204;28;20208;-77
2023/01/02 07:03:40;;;;;;;22.67;18.37;;;;;;;3.50;100.00;94132.50;5087728;28;20188;-77
2023/01/02 07:06:11;;;;;;;23.20;19.50;;;;;;;3.70;100.00;94139.25;5086881;28;20221;-77
2023/01/02 07:08:37;;;;;;;26.53;19.47;;;;;;;3.75;100.00;94138.66;5087424;28;20839;-76
2023/01/02 07:11:11;;;;;;;28.73;21.10;;;;;;;3.89;100.00;94143.59;5086632;28;20224;-76
2023/01/02 07:13:38;;;;;;;27.40;20.97;;;;;;;3.73;100.00;94110.47;5090255;28;20218;-77
2023/01/02 07:16:05;;;;;;;31.03;21.30;;;;;;;4.05;100.00;94148.38;5089563;28;20284;-77
2023/01/02 07:18:32;;;;;;;27.03;21.73;;;;;;;4.03;100.00;94139.25;5089834;28;20203;-79
2023/01/02 07:20:57;;;;;;;30.23;20.93;;;;;;;4.03;100.00;94134.84;5092249;28;21174;-77
2023/01/02 07:23:23;;;;;;;33.23;21.67;;;;;;;3.95;100.00;94101.50;5089727;28;20212;-77
2023/01/02 07:25:57;;;;;;;30.70;22.77;;;;;;;4.15;100.00;94133.25;5091695;28;20232;-77
2023/01/02 07:28:23;;;;;;;22.63;19.00;;;;;;;4.27;100.00;94141.16;5092091;28;20219;-77
2023/01/02 07:30:48;;;;;;;22.33;20.00;;;;;;;4.32;100.00;94136.19;5091219;28;20233;-77
2023/01/02 07:33:14;;;;;;;21.80;18.30;;;;;;;4.45;100.00;94134.34;5091877;28;20189;-77
2023/01/02 07:35:40;;;;;;;26.63;20.97;;;;;;;4.40;100.00;94141.13;5091319;28;20267;-77
2023/01/02 07:38:05;;;;;;;32.10;21.63;;;;;;;4.54;100.00;94153.84;5091814;28;20184;-77
2023/01/02 07:40:31;;;;;;;29.37;22.70;;;;;;;4.44;100.00;94145.69;5091324;28;20220;-77
2023/01/02 07:42:57;;;;;;;33.43;24.13;;;;;;;4.23;100.00;94145.16;5091951;28;20204;-77
2023/01/02 07:45:22;;;;;;;32.97;24.17;;;;;;;4.38;100.00;94149.09;5089533;28;20220;-77
2023/01/02 07:47:47;;;;;;;31.03;21.93;;;;;;;4.40;100.00;94141.13;5091446;28;20181;-77
2023/01/02 07:50:13;;;;;;;30.37;24.07;;;;;;;4.28;100.00;94104.78;5090944;28;20248;-77
2023/01/02 07:52:38;;;;;;;40.23;25.93;;;;;;;4.60;100.00;94142.66;5090222;28;20226;-77
2023/01/02 07:55:04;;;;;;;35.20;26.13;;;;;;;4.78;100.00;94140.19;5090000;28;20239;-77
2023/01/02 07:57:30;;;;;;;43.10;26.50;;;;;;;4.89;100.00;94147.31;5090916;28;20177;-85
2023/01/02 07:59:56;;;;;;;45.10;29.00;;;;;;;5.19;100.00;94154.53;5089749;28;20216;-78
2023/01/02 08:02:21;;;;;;;38.77;28.17;;;;;;;5.04;100.00;94149.66;5091024;28;20177;-78
2023/01/02 08:04:47;;;;;;;35.93;26.33;;;;;;;5.01;100.00;94138.91;5090628;28;21790;-78
2023/01/02 08:07:12;;;;;;;41.13;30.73;;;;;;;5.07;100.00;94156.19;5090703;28;20207;-73
2023/01/02 08:09:38;;;;;;;52.60;30.23;;;;;;;5.03;100.00;94139.50;5090156;28;20234;-70
2023/01/02 08:12:03;;;;;;;51.57;31.53;;;;;;;5.07;100.00;94154.41;5088224;28;20244;-69
2023/01/02 08:14:29;;;;;;;47.10;32.07;;;;;;;5.08;100.00;94158.56;5086519;28;20247;-70
2023/01/02 08:16:54;;;;;;;51.43;32.97;;;;;;;5.18;100.00;94160.72;5088453;28;20192;-71
2023/01/02 08:19:19;;;;;;;45.93;32.33;;;;;;;5.20;100.00;94153.53;5087946;28;20235;-72
2023/01/02 08:21:45;;;;;;;50.07;34.13;;;;;;;5.47;100.00;94155.75;5089428;28;20209;-73
2023/01/02 08:24:10;;;;;;;46.27;31.23;;;;;;;5.51;100.00;94156.13;5088106;28;20227;-71
2023/01/02 08:26:35;;;;;;;45.50;32.97;;;;;;;5.64;100.00;94158.63;5089557;28;20208;-74
2023/01/02 08:29:01;;;;;;;50.77;33.40;;;;;;;5.55;100.00;94136.56;5088896;28;20176;-76
2023/01/02 08:31:26;;;;;;;60.37;37.30;;;;;;;5.65;100.00;94118.78;5089751;28;20211;-75
2023/01/02 08:33:51;;;;;;;58.93;34.63;;;;;;;6.03;100.00;94147.97;5088534;28;20200;-79
2023/01/02 08:36:17;;;;;;;51.23;35.43;;;;;;;6.13;100.00;94135.34;5086219;28;20169;-76
2023/01/02 08:38:43;;;;;;;58.00;36.10;;;;;;;6.27;100.00;94137.56;5088311;28;20189;-77
2023/01/02 08:41:08;;;;;;;55.60;36.27;;;;;;;6.31;100.00;94150.91;5086833;28;20248;-77
2023/01/02 08:43:35;;;;;;;61.13;37.37;;;;;;;6.32;100.00;94157.66;5087356;28;20180;-77
2023/01/02 08:46:05;;;;;;;58.90;37.00;;;;;;;6.25;100.00;94154.38;5086593;28;20228;-75
2023/01/02 08:48:30;;;;;;;58.93;37.27;;;;;;;6.07;100.00;94152.53;5086940;28;20188;-78
2023/01/02 08:50:56;;;;;;;59.53;39.03;;;;;;;6.27;100.00;94163.50;5087647;28;20229;-74
2023/01/02 08:53:21;;;;;;;61.00;39.13;;;;;;;6.39;100.00;94155.81;5087251;28;20208;-77
2023/01/02 08:55:47;;;;;;;61.50;39.27;;;;;;;6.50;100.00;94153.31;5088940;28;20258;-77
2023/01/02 08:58:12;;;;;;;62.90;38.03;;;;;;;6.42;100.00;94142.41;5088908;28;20208;-74
2023/01/02 09:00:37;;;;;;;58.83;37.60;;;;;;;6.54;100.00;94138.09;5086109;28;20223;-74
2023/01/02 09:03:03;;;;;;;60.53;36.40;;;;;;;6.62;100.00;94130.03;5088427;28;20250;-74
2023/01/02 09:05:29;;;;;;;57.47;36.67;;;;;;;6.34;100.00;94127.13;5085340;28;20232;-72
2023/01/02 09:07:56;;;;;;;61.47;38.87;;;;;;;6.48;100.00;94113.03;5088381;28;20191;-76
2023/01/02 09:10:21;;;;;;;56.47;37.57;;;;;;;6.67;100.00;94127.56;5087483;28;20226;-73
2023/01/02 09:12:47;;;;;;;55.80;35.67;;;;;;;6.71;100.00;94131.31;5088352;28;20200;-76
2023/01/02 09:15:12;;;;;;;57.80;38.63;;;;;;;6.90;99.10;94124.28;5087629;28;20236;-76
2023/01/02 09:17:37;;;;;;;55.37;37.43;;;;;;;7.11;97.90;94119.44;5086970;28;20200;-73
2023/01/02 09:20:03;;;;;;;56.80;35.50;;;;;;;7.05;98.44;94116.94;5088450;28;20228;-72
2023/01/02 09:22:29;;;;;;;53.13;36.67;;;;;;;7.16;96.82;94111.75;5088374;28;20218;-69
2023/01/02 09:24:54;;;;;;;53.57;33.47;;;;;;;7.30;95.81;94120.19;5087915;28;20228;-69
2023/01/02 09:27:19;;;;;;;52.97;33.90;;;;;;;7.25;95.82;94120.84;5087952;28;20189;-70
2023/01/02 09:29:45;;;;;;;55.90;34.37;;;;;;;7.18;95.75;94119.34;5087164;28;20224;-69
2023/01/02 09:32:10;;;;;;;47.17;33.20;;;;;;;7.06;95.53;94111.53;5088915;28;20201;-70
2023/01/02 09:34:36;;;;;;;49.60;33.63;;;;;;;7.14;95.17;94113.81;5087818;28;20225;-71
2023/01/02 09:37:01;;;;;;;53.10;35.13;;;;;;;7.19;95.57;94092.38;5087172;28;20323;-71
2023/01/02 09:39:26;;;;;;;46.23;32.23;;;;;;;7.24;94.48;94098.47;5087828;28;20274;-71
2023/01/02 09:41:56;;;;;;;48.37;33.53;;;;;;;7.33;94.73;94086.75;5087458;28;20260;-71
2023/01/02 09:44:31;;;;;;;47.00;33.10;;;;;;;7.59;93.24;94088.16;5087640;28;20267;-70
2023/01/02 09:47:21;;;;;;;50.90;33.47;;;;;;;7.59;92.74;94081.16;5089630;28;20266;-70
2023/01/02 09:49:49;;;;;;;47.10;32.73;;;;;;;7.66;92.22;94081.84;5088001;28;20229;-72
2023/01/02 09:52:32;;;;;;;47.97;31.60;;;;;;;7.79;90.90;94060.84;5087743;28;20192;-71
2023/01/02 09:54:58;;;;;;;55.00;34.10;;;;;;;7.83;91.18;94087.16;5086921;28;20259;-74
2023/01/02 09:57:31;;;;;;;49.97;33.63;;;;;;;7.85;91.71;94075.53;5086812;28;20205;-73
2023/01/02 10:00:01;;;;;;;51.87;34.37;;;;;;;7.72;92.83;94065.34;5086932;28;20284;-76
2023/01/02 10:02:31;;;;;;;49.23;33.80;;;;;;;7.99;90.76;94057.88;5087202;28;20185;-74
2023/01/02 10:05:23;;;;;;;56.13;31.67;;;;;;;7.88;90.23;94056.09;5085955;28;20231;-71
2023/01/02 10:07:55;;;;;;;43.20;29.60;;;;;;;7.97;90.19;94045.13;5085726;28;20191;-75
2023/01/02 10:10:23;;;;;;;45.83;30.97;;;;;;;8.19;89.18;94055.72;5087035;28;20224;-75
2023/01/02 10:13:39;;;;;;;47.73;32.10;;;;;;;8.21;89.46;94048.50;5085976;28;20291;-76
2023/01/02 10:16:06;;;;;;;47.00;30.03;;;;;;;8.52;88.14;94047.31;5025246;28;20227;-91
2023/01/02 10:18:39;;;;;;;47.30;32.23;;;;;;;8.39;88.12;94050.19;5079432;28;20269;-79
2023/01/02 10:21:28;;;;;;;43.67;28.90;;;;;;;8.64;86.60;94042.88;5087784;28;20225;-74
2023/01/02 10:24:06;;;;;;;44.70;28.83;;;;;;;8.75;85.69;94034.22;5086683;28;20200;-76
2023/01/02 10:26:37;;;;;;;34.30;27.93;;;;;;;8.51;86.73;94048.34;5087378;28;20193;-77
2023/01/02 10:29:17;;;;;;;39.17;27.23;;;;;;;8.64;85.90;94038.47;5083171;28;20228;-76
2023/01/02 10:31:50;;;;;;;40.47;27.70;;;;;;;8.66;86.15;94046.03;5087416;28;20187;-80
2023/01/02 10:34:18;;;;;;;40.27;27.80;;;;;;;8.85;85.96;94053.44;5086633;28;20223;-83
2023/01/02 10:36:45;;;;;;;41.60;28.17;;;;;;;9.02;84.17;94033.44;5118133;28;20185;-82
2023/01/02 10:39:20;;;;;;;37.20;26.23;;;;;;;9.12;83.75;94038.06;5085318;28;20243;-81
2023/01/02 10:41:49;;;;;;;35.13;26.83;;;;;;;8.88;84.91;94039.16;5086229;28;20252;-80
2023/01/02 10:44:38;;;;;;;34.07;27.17;;;;;;;8.97;84.61;94037.75;5086587;28;20224;-79
2023/01/02 10:47:33;;;;;;;35.70;25.70;;;;;;;9.27;82.46;94038.31;5078508;28;20260;-77
2023/01/02 10:50:00;;;;;;;31.97;25.23;;;;;;;8.77;84.18;94017.38;5089624;28;20781;-80
2023/01/02 10:52:38;;;;;;;39.17;26.20;;;;;;;8.79;85.21;94022.34;5090444;28;20200;-79
2023/01/02 10:55:03;;;;;;;35.67;25.30;;;;;;;9.16;83.32;94029.53;5089442;28;20232;-80
2023/01/02 10:57:41;;;;;;;35.73;26.67;;;;;;;9.40;81.88;94038.00;5088800;28;20184;-80
2023/01/02 11:00:27;;;;;;;37.70;27.07;;;;;;;9.27;81.52;94027.88;5088081;28;20223;-77
2023/01/02 11:03:06;;;;;;;35.40;25.07;;;;;;;8.90;83.69;94018.91;5090139;28;20334;-73
2023/01/02 11:05:32;;;;;;;34.47;26.77;;;;;;;8.93;82.89;93995.00;5089067;28;20264;-72
2023/01/02 11:07:57;;;;;;;39.10;26.87;;;;;;;8.92;83.42;93996.03;5089454;28;20200;-72
2023/01/02 11:10:27;;;;;;;37.33;27.77;;;;;;;9.07;82.48;93999.69;5089001;28;20220;-73
2023/01/02 11:12:52;;;;;;;39.27;27.60;;;;;;;9.15;82.77;94008.94;5090015;28;20215;-77
2023/01/02 11:15:29;;;;;;;38.53;27.13;;;;;;;9.13;83.50;94001.34;5090078;28;20240;-74
2023/01/02 11:17:56;;;;;;;36.93;28.40;;;;;;;9.27;82.29;93999.22;5091879;28;20196;-78
2023/01/02 11:20:34;;;;;;;41.90;28.50;;;;;;;9.28;82.11;93998.19;5090145;28;20224;-70
2023/01/02 11:23:02;;;;;;;42.03;28.07;;;;;;;9.20;82.56;93980.31;5090331;28;20185;-72
2023/01/02 11:25:35;;;;;;;40.90;28.50;;;;;;;9.40;82.35;93988.50;5087641;28;20254;-72
2023/01/02 11:28:01;;;;;;;37.13;29.23;;;;;;;9.32;82.75;93986.28;5089243;28;20851;-70
2023/01/02 11:30:37;;;;;;;40.90;28.53;;;;;;;9.50;82.04;93991.25;5090421;28;20225;-73
2023/01/02 11:33:20;;;;;;;41.17;29.07;;;;;;;9.42;81.81;93986.41;5087780;28;20185;-72